Аэропорт: Кольцово. Екатеринбург

ICAO: USSS

METAR:
2018/11/19 10:00
USSS 191000Z 25003MPS 9999 BKN015 OVC036 M00/M02 Q1020 R26R/520340 NOSIG RMK QFE744/0993
METAR:
2018/11/19 09:24
TAF USSS 190759Z 1909/2009 27003G08MPS 6000 -SHSN BKN011 SCT020CB 
      BECMG 1913/1915 35003G10MPS 3100 -SHSN BR